Time;durP1;ratioP1;P1;durP2;ratioP2;P2;SDS_P1;SDS_P2;PMS_P1;PMS_P2;Temp;Humidity;BMP_temperature;BMP_pressure;BME280_temperature;BME280_humidity;BME280_pressure;Samples;Min_cycle;Max_cycle;Signal;HPM_P1;HPM_P2
2022/12/11 00:01:20;;;;;;;19.95;17.80;;;;;;;;;;5030590;28;20053;-75
2022/12/11 00:03:46;;;;;;;22.17;19.98;;;;;;;;;;5030057;28;20474;-75
2022/12/11 00:06:12;;;;;;;18.92;17.05;;;;;;;;;;5034484;28;20406;-78
2022/12/11 00:08:38;;;;;;;20.75;18.70;;;;;;;;;;5025690;28;20020;-77
2022/12/11 00:11:03;;;;;;;17.92;16.10;;;;;;;;;;5026786;28;20095;-76
2022/12/11 00:13:29;;;;;;;17.83;16.02;;;;;;;;;;5029585;28;20025;-78
2022/12/11 00:15:54;;;;;;;17.65;15.93;;;;;;;;;;5025182;28;20041;-76
2022/12/11 00:18:20;;;;;;;18.40;16.50;;;;;;;;;;5025371;28;20020;-75
2022/12/11 00:20:45;;;;;;;16.08;14.48;;;;;;;;;;5025845;28;20039;-76
2022/12/11 00:23:10;;;;;;;34.20;30.90;;;;;;;;;;5037889;28;20096;-75
2022/12/11 00:25:46;;;;;;;32.50;29.02;;;;;;;;;;5038051;28;20510;-78
2022/12/11 00:28:11;;;;;;;35.75;31.95;;;;;;;;;;5033980;28;20036;-79
2022/12/11 00:30:38;;;;;;;32.47;28.98;;;;;;;;;;5036396;28;20025;-76
2022/12/11 00:33:03;;;;;;;22.75;20.40;;;;;;;;;;5027612;28;20463;-79
2022/12/11 00:35:28;;;;;;;20.42;18.33;;;;;;;;;;5029084;28;20514;-83
2022/12/11 00:37:54;;;;;;;38.13;32.50;;;;;;;;;;5030225;28;20404;-81
2022/12/11 00:40:19;;;;;;;33.40;29.90;;;;;;;;;;5033398;28;20095;-77
2022/12/11 00:42:45;;;;;;;44.65;40.03;;;;;;;;;;5036842;28;20036;-75
2022/12/11 00:45:10;;;;;;;38.10;34.20;;;;;;;;;;5031806;28;20028;-76
2022/12/11 00:47:35;;;;;;;27.58;24.55;;;;;;;;;;5024857;28;20034;-76
2022/12/11 00:50:01;;;;;;;26.38;23.60;;;;;;;;;;5029056;28;20372;-80
2022/12/11 00:52:26;;;;;;;37.70;32.70;;;;;;;;;;5036402;28;20416;-75
2022/12/11 00:54:52;;;;;;;26.23;23.10;;;;;;;;;;5028104;28;20036;-78
2022/12/11 00:57:17;;;;;;;17.65;15.75;;;;;;;;;;5034001;28;20034;-77
2022/12/11 00:59:42;;;;;;;25.73;22.55;;;;;;;;;;5026621;28;20033;-79
2022/12/11 01:02:08;;;;;;;41.63;36.58;;;;;;;;;;5024244;28;20044;-77
2022/12/11 01:04:34;;;;;;;105.10;86.03;;;;;;;;;;5024249;28;20033;-78
2022/12/11 01:06:59;;;;;;;91.03;73.13;;;;;;;;;;5036547;28;20039;-76
2022/12/11 01:12:08;;;;;;;48.85;37.60;;;;;;;;;;5038564;28;20055;-80
2022/12/11 01:14:34;;;;;;;45.40;31.95;;;;;;;;;;5019878;28;20044;-76
2022/12/11 01:16:59;;;;;;;36.35;32.28;;;;;;;;;;5032996;28;20082;-75
2022/12/11 01:19:24;;;;;;;24.50;21.92;;;;;;;;;;5028830;28;20104;-82
2022/12/11 01:21:50;;;;;;;45.83;41.05;;;;;;;;;;5031413;28;20036;-77
2022/12/11 01:24:15;;;;;;;46.33;41.53;;;;;;;;;;5039574;28;20036;-76
2022/12/11 01:26:40;;;;;;;27.50;24.55;;;;;;;;;;5038435;28;20463;-82
2022/12/11 01:29:06;;;;;;;32.95;29.45;;;;;;;;;;5037662;28;20032;-79
2022/12/11 01:31:31;;;;;;;23.98;21.38;;;;;;;;;;5032858;28;20028;-76
2022/12/11 01:33:56;;;;;;;21.85;19.55;;;;;;;;;;5033322;28;21029;-82
2022/12/11 01:36:22;;;;;;;30.48;26.25;;;;;;;;;;5032666;28;20040;-76
2022/12/11 01:38:48;;;;;;;26.48;22.30;;;;;;;;;;5031403;28;20078;-76
2022/12/11 01:41:14;;;;;;;16.90;15.30;;;;;;;;;;5034180;28;20037;-76
2022/12/11 01:43:54;;;;;;;18.98;16.77;;;;;;;;;;5036904;28;20040;-83
2022/12/11 01:46:20;;;;;;;33.40;29.52;;;;;;;;;;5036630;28;20028;-75
2022/12/11 01:48:45;;;;;;;21.08;18.95;;;;;;;;;;5032924;28;20043;-76
2022/12/11 01:51:10;;;;;;;20.90;17.83;;;;;;;;;;5037022;28;20029;-79
2022/12/11 01:53:39;;;;;;;19.25;17.35;;;;;;;;;;5031062;28;20441;-77
2022/12/11 01:56:05;;;;;;;20.98;18.75;;;;;;;;;;5027148;28;20041;-76
2022/12/11 01:58:37;;;;;;;23.45;21.05;;;;;;;;;;5030638;28;20474;-81
2022/12/11 02:01:03;;;;;;;20.80;18.70;;;;;;;;;;5036406;28;20095;-80
2022/12/11 02:03:28;;;;;;;21.08;18.98;;;;;;;;;;5028823;28;20033;-77
2022/12/11 02:05:58;;;;;;;22.98;20.30;;;;;;;;;;5035966;28;20025;-78
2022/12/11 02:08:23;;;;;;;22.35;20.00;;;;;;;;;;5027744;28;20083;-77
2022/12/11 02:11:04;;;;;;;31.95;27.90;;;;;;;;;;5029911;28;20045;-80
2022/12/11 02:13:34;;;;;;;26.58;23.77;;;;;;;;;;5037175;28;20032;-79
2022/12/11 02:16:15;;;;;;;27.00;24.25;;;;;;;;;;5039561;28;20480;-77
2022/12/11 02:18:45;;;;;;;23.30;20.95;;;;;;;;;;5028603;28;20025;-76
2022/12/11 02:21:29;;;;;;;26.95;24.17;;;;;;;;;;5032533;28;20359;-79
2022/12/11 02:23:54;;;;;;;22.90;20.55;;;;;;;;;;5028883;28;20037;-78
2022/12/11 02:26:38;;;;;;;22.42;19.98;;;;;;;;;;5039645;28;20100;-76
2022/12/11 02:29:09;;;;;;;25.27;21.73;;;;;;;;;;5031412;28;20037;-75
2022/12/11 02:31:40;;;;;;;24.60;21.83;;;;;;;;;;5031076;28;20367;-77
2022/12/11 02:34:15;;;;;;;22.13;20.00;;;;;;;;;;5028055;28;20028;-76
2022/12/11 02:36:44;;;;;;;22.23;19.98;;;;;;;;;;5038538;28;20041;-77
2022/12/11 02:39:11;;;;;;;42.90;37.35;;;;;;;;;;5036567;28;20108;-76
2022/12/11 02:41:38;;;;;;;49.55;41.67;;;;;;;;;;5027724;28;20060;-78
2022/12/11 02:44:04;;;;;;;54.55;44.67;;;;;;;;;;5036145;28;20028;-80
2022/12/11 02:46:30;;;;;;;58.10;50.63;;;;;;;;;;5030607;28;20466;-76
2022/12/11 02:48:56;;;;;;;41.88;37.28;;;;;;;;;;5038171;28;20734;-79
2022/12/11 02:51:24;;;;;;;43.70;36.25;;;;;;;;;;5037641;28;20064;-76
2022/12/11 02:53:50;;;;;;;39.80;33.78;;;;;;;;;;5036319;28;20056;-82
2022/12/11 02:56:19;;;;;;;51.50;40.97;;;;;;;;;;5040003;28;20520;-84
2022/12/11 02:58:47;;;;;;;50.40;40.55;;;;;;;;;;5039024;28;20031;-78
2022/12/11 03:01:12;;;;;;;44.97;37.22;;;;;;;;;;5030545;28;20065;-75
2022/12/11 03:03:38;;;;;;;51.63;39.17;;;;;;;;;;5027339;28;20119;-81
2022/12/11 03:06:03;;;;;;;91.60;64.72;;;;;;;;;;5034558;28;20029;-75
2022/12/11 03:08:28;;;;;;;104.70;70.70;;;;;;;;;;5028979;28;20033;-77
2022/12/11 03:10:54;;;;;;;75.53;58.67;;;;;;;;;;5035910;28;20055;-76
2022/12/11 03:13:20;;;;;;;73.90;60.47;;;;;;;;;;5035365;28;20029;-78
2022/12/11 03:15:51;;;;;;;37.47;32.83;;;;;;;;;;5029278;28;20052;-81
2022/12/11 03:18:30;;;;;;;35.90;30.15;;;;;;;;;;5028656;28;20047;-78
2022/12/11 03:20:56;;;;;;;49.28;42.40;;;;;;;;;;5026875;28;20073;-75
2022/12/11 03:23:27;;;;;;;37.65;32.67;;;;;;;;;;5039431;28;20456;-76
2022/12/11 03:25:55;;;;;;;80.78;55.95;;;;;;;;;;5029919;28;20028;-75
2022/12/11 03:28:34;;;;;;;79.35;58.53;;;;;;;;;;5038071;28;20040;-83
2022/12/11 03:31:03;;;;;;;81.83;61.77;;;;;;;;;;5037075;28;20021;-80
2022/12/11 03:33:39;;;;;;;61.33;48.13;;;;;;;;;;5030211;28;20017;-84
2022/12/11 03:36:16;;;;;;;55.63;44.97;;;;;;;;;;5031315;28;20118;-84
2022/12/11 03:38:58;;;;;;;54.85;42.92;;;;;;;;;;5036351;28;20029;-84
2022/12/11 03:41:25;;;;;;;36.00;30.58;;;;;;;;;;5024405;28;20031;-79
2022/12/11 03:43:52;;;;;;;51.80;42.40;;;;;;;;;;5039746;28;20034;-76
2022/12/11 03:46:20;;;;;;;39.28;31.23;;;;;;;;;;5028598;28;20029;-76
2022/12/11 03:48:47;;;;;;;81.82;62.95;;;;;;;;;;5029686;28;20029;-82
2022/12/11 03:51:12;;;;;;;84.90;62.10;;;;;;;;;;5035577;28;20021;-76
2022/12/11 03:53:38;;;;;;;57.50;47.42;;;;;;;;;;5038110;28;20344;-78
2022/12/11 03:56:05;;;;;;;73.47;53.60;;;;;;;;;;5037544;28;20045;-86
2022/12/11 03:58:31;;;;;;;60.35;46.67;;;;;;;;;;5034642;28;20456;-85
2022/12/11 04:00:56;;;;;;;43.63;33.40;;;;;;;;;;5036522;28;20040;-75
2022/12/11 04:03:22;;;;;;;38.78;30.25;;;;;;;;;;5038637;28;20098;-75
2022/12/11 04:05:48;;;;;;;47.92;36.38;;;;;;;;;;5037100;28;20064;-75
2022/12/11 04:08:14;;;;;;;32.10;26.92;;;;;;;;;;5031629;28;20060;-90
2022/12/11 04:10:40;;;;;;;29.50;23.02;;;;;;;;;;5032694;28;20071;-92
2022/12/11 04:13:05;;;;;;;11.48;10.45;;;;;;;;;;5035227;28;20035;-77
2022/12/11 04:15:31;;;;;;;11.63;9.05;;;;;;;;;;5036225;28;20467;-80
2022/12/11 04:26:12;;;;;;;9.02;7.20;;;;;;;;;;5006883;28;20049;-82
2022/12/11 04:28:37;;;;;;;15.52;12.27;;;;;;;;;;5034659;28;20037;-78
2022/12/11 04:31:03;;;;;;;10.27;8.48;;;;;;;;;;5027602;28;20021;-81
2022/12/11 04:33:28;;;;;;;9.50;7.43;;;;;;;;;;5035028;28;20021;-76
2022/12/11 04:35:53;;;;;;;8.77;7.18;;;;;;;;;;5033849;28;20479;-86
2022/12/11 04:38:19;;;;;;;11.50;10.40;;;;;;;;;;5030302;28;20025;-80
2022/12/11 04:40:44;;;;;;;13.60;12.25;;;;;;;;;;5034950;28;20033;-76
2022/12/11 04:43:09;;;;;;;9.93;8.88;;;;;;;;;;5034721;28;21145;-81
2022/12/11 04:45:35;;;;;;;10.32;8.43;;;;;;;;;;5032330;28;20047;-78
2022/12/11 04:48:00;;;;;;;33.60;25.13;;;;;;;;;;5032299;28;20037;-79
2022/12/11 04:50:25;;;;;;;21.02;16.08;;;;;;;;;;5028506;28;20021;-77
2022/12/11 04:52:54;;;;;;;15.27;11.82;;;;;;;;;;5036823;28;20036;-76
2022/12/11 04:55:20;;;;;;;8.77;6.95;;;;;;;;;;5036345;28;20070;-80
2022/12/11 04:57:45;;;;;;;7.68;5.70;;;;;;;;;;5035767;28;20034;-76
2022/12/11 05:00:11;;;;;;;25.48;16.75;;;;;;;;;;5031297;28;20364;-76
2022/12/11 05:02:38;;;;;;;74.65;53.97;;;;;;;;;;5031288;28;20152;-75
2022/12/11 05:05:04;;;;;;;46.75;37.13;;;;;;;;;;5037305;28;20048;-76
2022/12/11 05:07:29;;;;;;;37.50;29.30;;;;;;;;;;5033099;28;20331;-77
2022/12/11 05:09:54;;;;;;;24.17;17.88;;;;;;;;;;5029161;28;20650;-77
2022/12/11 05:12:20;;;;;;;6.20;3.75;;;;;;;;;;5034847;28;20020;-77
2022/12/11 05:14:45;;;;;;;5.78;3.80;;;;;;;;;;5036224;28;20452;-75
2022/12/11 05:17:10;;;;;;;6.75;4.53;;;;;;;;;;5006932;28;20553;-77
2022/12/11 05:19:36;;;;;;;6.05;4.22;;;;;;;;;;5035287;28;20021;-76
2022/12/11 05:22:01;;;;;;;23.17;15.98;;;;;;;;;;5034339;28;20036;-75
2022/12/11 05:24:26;;;;;;;41.55;27.42;;;;;;;;;;5034901;28;20041;-76
2022/12/11 05:26:52;;;;;;;18.52;15.30;;;;;;;;;;5035156;28;20033;-77
2022/12/11 05:29:17;;;;;;;16.52;13.77;;;;;;;;;;5033929;28;20021;-75
2022/12/11 05:31:42;;;;;;;5.43;4.90;;;;;;;;;;5028838;28;20024;-78
2022/12/11 05:34:08;;;;;;;8.32;6.07;;;;;;;;;;5031488;28;20029;-76
2022/12/11 05:36:33;;;;;;;6.75;6.05;;;;;;;;;;5026203;28;20554;-76
2022/12/11 05:38:59;;;;;;;3.88;3.58;;;;;;;;;;5038243;28;20031;-75
2022/12/11 05:41:26;;;;;;;9.65;8.65;;;;;;;;;;5026233;28;20025;-75
2022/12/11 05:43:51;;;;;;;8.85;7.95;;;;;;;;;;5035126;28;20452;-75
2022/12/11 05:46:17;;;;;;;11.75;10.27;;;;;;;;;;5031158;28;20026;-76
2022/12/11 05:48:43;;;;;;;30.38;23.63;;;;;;;;;;5030601;28;20067;-74
2022/12/11 05:51:09;;;;;;;27.40;19.15;;;;;;;;;;5028202;28;20666;-80
2022/12/11 05:53:35;;;;;;;15.25;12.55;;;;;;;;;;5027273;28;20136;-76
2022/12/11 05:56:01;;;;;;;24.05;17.98;;;;;;;;;;5031362;28;20333;-75
2022/12/11 05:58:27;;;;;;;28.77;22.90;;;;;;;;;;5042519;28;20051;-77
2022/12/11 06:00:52;;;;;;;19.90;15.65;;;;;;;;;;5040868;28;20084;-77
2022/12/11 06:03:17;;;;;;;24.80;18.17;;;;;;;;;;5039402;28;20538;-80
2022/12/11 06:05:43;;;;;;;19.10;14.27;;;;;;;;;;5042859;28;20033;-76
2022/12/11 06:08:08;;;;;;;18.20;13.82;;;;;;;;;;5040709;28;20025;-76
2022/12/11 06:10:34;;;;;;;43.42;27.73;;;;;;;;;;5040857;28;20151;-76
2022/12/11 06:12:59;;;;;;;13.65;9.52;;;;;;;;;;5042617;28;20033;-76
2022/12/11 06:15:25;;;;;;;10.05;8.23;;;;;;;;;;5040659;28;20188;-78
2022/12/11 06:17:50;;;;;;;76.78;57.70;;;;;;;;;;5037775;28;20303;-77
2022/12/11 06:20:16;;;;;;;22.00;16.77;;;;;;;;;;5034378;28;20044;-81
2022/12/11 06:22:41;;;;;;;29.10;20.92;;;;;;;;;;5040437;28;20186;-78
2022/12/11 06:25:06;;;;;;;19.85;15.98;;;;;;;;;;5039554;28;20036;-83
2022/12/11 06:27:32;;;;;;;10.60;9.60;;;;;;;;;;5032075;28;20026;-83
2022/12/11 06:29:57;;;;;;;10.52;9.52;;;;;;;;;;5041422;28;20037;-76
2022/12/11 06:32:22;;;;;;;13.18;12.00;;;;;;;;;;5042089;28;20095;-77
2022/12/11 06:34:48;;;;;;;9.68;7.55;;;;;;;;;;5041671;28;20041;-76
2022/12/11 06:37:13;;;;;;;14.15;12.23;;;;;;;;;;5042526;28;20050;-78
2022/12/11 06:39:38;;;;;;;11.00;9.82;;;;;;;;;;5030558;28;20025;-76
2022/12/11 06:42:04;;;;;;;24.25;18.13;;;;;;;;;;5027790;28;20100;-75
2022/12/11 06:44:29;;;;;;;14.48;10.32;;;;;;;;;;5025892;28;20056;-79
2022/12/11 06:46:55;;;;;;;17.95;16.13;;;;;;;;;;5026997;28;20021;-74
2022/12/11 06:49:20;;;;;;;16.15;11.38;;;;;;;;;;5038589;28;20021;-74
2022/12/11 06:51:45;;;;;;;22.25;16.83;;;;;;;;;;5038515;28;20033;-75
2022/12/11 06:54:11;;;;;;;29.35;19.33;;;;;;;;;;5041532;28;20107;-76
2022/12/11 06:56:36;;;;;;;21.33;19.00;;;;;;;;;;5039380;28;20040;-73
2022/12/11 06:59:02;;;;;;;13.95;12.50;;;;;;;;;;5024529;28;20497;-74
2022/12/11 07:01:27;;;;;;;7.43;6.72;;;;;;;;;;5028812;28;20449;-72
2022/12/11 07:03:53;;;;;;;2.63;2.08;;;;;;;;;;5028457;28;20025;-73
2022/12/11 07:06:19;;;;;;;3.28;2.97;;;;;;;;;;5035701;28;20037;-76
2022/12/11 07:08:44;;;;;;;20.10;15.00;;;;;;;;;;5039382;28;20033;-75
2022/12/11 07:11:11;;;;;;;5.22;4.30;;;;;;;;;;5038703;28;20345;-79
2022/12/11 07:13:36;;;;;;;8.00;7.20;;;;;;;;;;5037329;28;20132;-75
2022/12/11 07:16:04;;;;;;;22.73;20.48;;;;;;;;;;5039565;28;20118;-76
2022/12/11 07:18:31;;;;;;;15.38;14.00;;;;;;;;;;5027580;28;20871;-76
2022/12/11 07:20:57;;;;;;;20.63;18.73;;;;;;;;;;5038706;28;20733;-76
2022/12/11 07:23:23;;;;;;;7.93;7.15;;;;;;;;;;5032469;28;20520;-75
2022/12/11 07:25:48;;;;;;;10.98;9.95;;;;;;;;;;5030180;28;20061;-75
2022/12/11 07:28:14;;;;;;;53.10;40.90;;;;;;;;;;5028731;28;20071;-73
2022/12/11 07:30:39;;;;;;;99.60;74.22;;;;;;;;;;5036447;28;20039;-75
2022/12/11 07:33:05;;;;;;;77.18;56.38;;;;;;;;;;5030005;28;20025;-79
2022/12/11 07:35:32;;;;;;;36.25;25.88;;;;;;;;;;5024734;28;20112;-81
2022/12/11 07:37:58;;;;;;;24.50;18.27;;;;;;;;;;5023528;28;20025;-77
2022/12/11 07:40:23;;;;;;;75.97;49.05;;;;;;;;;;5023288;28;20459;-77
2022/12/11 07:42:49;;;;;;;14.38;10.95;;;;;;;;;;5023267;28;20021;-75
2022/12/11 07:45:14;;;;;;;8.68;7.18;;;;;;;;;;5025986;28;21470;-82
2022/12/11 07:47:39;;;;;;;28.80;20.42;;;;;;;;;;5035065;28;20708;-78
2022/12/11 07:50:05;;;;;;;27.35;21.90;;;;;;;;;;5024939;28;20039;-74
2022/12/11 07:52:32;;;;;;;21.98;19.02;;;;;;;;;;5037211;28;20017;-80
2022/12/11 07:54:57;;;;;;;8.63;7.07;;;;;;;;;;5038730;28;20115;-75
2022/12/11 07:57:22;;;;;;;4.25;3.85;;;;;;;;;;5039529;28;20132;-80
2022/12/11 07:59:48;;;;;;;6.15;5.55;;;;;;;;;;5039553;28;20108;-76
2022/12/11 08:02:13;;;;;;;6.82;6.15;;;;;;;;;;5037599;28;20025;-78
2022/12/11 08:04:38;;;;;;;21.83;18.25;;;;;;;;;;5015077;28;20029;-80
2022/12/11 08:07:04;;;;;;;19.20;16.50;;;;;;;;;;5011833;28;20025;-79
2022/12/11 08:09:29;;;;;;;12.18;10.98;;;;;;;;;;5018099;28;21022;-81
2022/12/11 08:11:55;;;;;;;22.00;19.70;;;;;;;;;;5031185;28;20353;-77
2022/12/11 08:14:20;;;;;;;10.55;8.25;;;;;;;;;;5036974;28;20025;-79
2022/12/11 08:16:46;;;;;;;16.00;10.63;;;;;;;;;;5000975;28;20045;-76
2022/12/11 08:19:11;;;;;;;8.90;7.70;;;;;;;;;;5029542;28;20346;-74
2022/12/11 08:21:37;;;;;;;22.27;14.57;;;;;;;;;;5023764;28;20024;-78
2022/12/11 08:24:02;;;;;;;14.60;10.32;;;;;;;;;;5028333;28;20099;-81
2022/12/11 08:26:29;;;;;;;10.50;9.57;;;;;;;;;;5040385;28;20045;-77
2022/12/11 08:28:54;;;;;;;3.88;3.47;;;;;;;;;;5029242;28;20108;-78
2022/12/11 08:31:20;;;;;;;16.92;11.23;;;;;;;;;;5031304;28;20407;-77
2022/12/11 08:33:46;;;;;;;12.48;9.52;;;;;;;;;;5031016;28;20039;-77
2022/12/11 08:36:13;;;;;;;16.15;11.90;;;;;;;;;;5021011;28;20329;-75
2022/12/11 08:38:39;;;;;;;11.43;7.10;;;;;;;;;;5026855;28;20100;-75
2022/12/11 08:41:11;;;;;;;26.67;16.60;;;;;;;;;;5035766;28;20132;-77
2022/12/11 08:43:37;;;;;;;25.92;18.20;;;;;;;;;;5025219;28;20653;-77
2022/12/11 08:46:02;;;;;;;24.50;19.63;;;;;;;;;;5031945;28;20053;-76
2022/12/11 08:48:28;;;;;;;40.97;31.45;;;;;;;;;;5030684;28;20872;-75
2022/12/11 08:50:53;;;;;;;31.05;24.20;;;;;;;;;;5023758;28;20104;-75
2022/12/11 08:53:18;;;;;;;18.70;15.90;;;;;;;;;;5032120;28;20026;-76
2022/12/11 08:55:44;;;;;;;30.55;19.23;;;;;;;;;;5027875;28;20045;-73
2022/12/11 08:58:09;;;;;;;18.67;15.20;;;;;;;;;;5028298;28;20063;-76
2022/12/11 09:00:35;;;;;;;6.32;5.70;;;;;;;;;;5017723;28;20029;-76
2022/12/11 09:03:00;;;;;;;34.90;30.52;;;;;;;;;;5027846;28;20026;-76
2022/12/11 09:05:25;;;;;;;22.83;20.63;;;;;;;;;;5027063;28;20033;-76
2022/12/11 09:07:51;;;;;;;24.90;22.40;;;;;;;;;;5016991;28;20432;-76
2022/12/11 09:10:16;;;;;;;11.23;10.10;;;;;;;;;;5024720;28;20474;-73
2022/12/11 09:12:42;;;;;;;31.70;22.98;;;;;;;;;;5033793;28;20025;-77
2022/12/11 09:15:07;;;;;;;40.20;28.63;;;;;;;;;;5028959;28;20051;-76
2022/12/11 09:17:33;;;;;;;31.88;21.33;;;;;;;;;;5020455;28;20344;-77
2022/12/11 09:19:58;;;;;;;20.45;17.30;;;;;;;;;;5035220;28;21073;-77
2022/12/11 09:22:23;;;;;;;13.05;11.75;;;;;;;;;;5036224;28;20115;-76
2022/12/11 09:24:49;;;;;;;13.80;11.20;;;;;;;;;;5027538;28;20075;-77
2022/12/11 09:27:14;;;;;;;24.33;18.85;;;;;;;;;;5030000;28;20033;-77
2022/12/11 09:29:40;;;;;;;24.45;20.60;;;;;;;;;;5043086;28;20726;-79
2022/12/11 09:32:05;;;;;;;25.67;22.95;;;;;;;;;;5039392;28;20318;-79
2022/12/11 09:34:31;;;;;;;31.23;25.20;;;;;;;;;;5033984;28;20040;-77
2022/12/11 09:36:56;;;;;;;27.15;21.98;;;;;;;;;;5035690;28;20036;-79
2022/12/11 09:39:22;;;;;;;21.00;18.13;;;;;;;;;;5041032;28;20033;-77
2022/12/11 09:42:02;;;;;;;15.20;13.70;;;;;;;;;;5036738;28;20044;-90
2022/12/11 09:44:33;;;;;;;16.20;13.02;;;;;;;;;;5026941;28;20031;-79
2022/12/11 09:46:59;;;;;;;51.55;26.40;;;;;;;;;;5029147;28;20021;-76
2022/12/11 09:49:24;;;;;;;14.40;12.90;;;;;;;;;;5018816;28;20025;-73
2022/12/11 09:51:58;;;;;;;12.63;11.27;;;;;;;;;;5022304;28;20037;-76
2022/12/11 09:54:24;;;;;;;68.90;45.60;;;;;;;;;;5022089;28;20029;-76
2022/12/11 09:57:12;;;;;;;36.40;29.05;;;;;;;;;;5028415;28;20043;-75
2022/12/11 09:59:51;;;;;;;28.33;24.42;;;;;;;;;;5006748;28;20143;-77
2022/12/11 10:02:35;;;;;;;58.60;44.80;;;;;;;;;;5031364;28;20024;-79
2022/12/11 10:05:03;;;;;;;36.10;28.73;;;;;;;;;;5028700;28;20139;-75
2022/12/11 10:07:44;;;;;;;15.90;13.55;;;;;;;;;;5030108;28;20192;-79
2022/12/11 10:10:15;;;;;;;24.73;20.25;;;;;;;;;;5039179;28;20037;-79
2022/12/11 10:12:44;;;;;;;20.08;17.92;;;;;;;;;;5039546;28;20309;-77
2022/12/11 10:15:15;;;;;;;21.13;18.70;;;;;;;;;;5028597;28;20111;-81
2022/12/11 10:17:43;;;;;;;14.65;12.52;;;;;;;;;;5040069;28;20029;-80
2022/12/11 10:20:08;;;;;;;14.23;12.57;;;;;;;;;;5040015;28;20440;-77
2022/12/11 10:22:34;;;;;;;11.13;9.73;;;;;;;;;;5029647;28;20120;-76
2022/12/11 10:25:01;;;;;;;11.90;10.48;;;;;;;;;;5021446;28;20033;-78
2022/12/11 10:27:34;;;;;;;8.93;8.02;;;;;;;;;;5023444;28;20112;-76
2022/12/11 10:30:11;;;;;;;13.05;10.77;;;;;;;;;;5023717;28;20029;-77
2022/12/11 10:32:46;;;;;;;15.55;13.32;;;;;;;;;;5023619;28;20055;-74
2022/12/11 10:35:17;;;;;;;17.05;15.20;;;;;;;;;;5025108;28;20048;-79
2022/12/11 10:37:42;;;;;;;9.90;8.90;;;;;;;;;;5024519;28;20341;-80
2022/12/11 10:40:08;;;;;;;8.88;7.72;;;;;;;;;;5023111;28;20035;-77
2022/12/11 10:42:34;;;;;;;12.43;11.07;;;;;;;;;;5023413;28;20045;-76
2022/12/11 10:45:00;;;;;;;8.27;7.43;;;;;;;;;;5022711;28;20059;-76
2022/12/11 10:47:26;;;;;;;9.50;8.25;;;;;;;;;;5017203;28;20084;-78
2022/12/11 10:49:57;;;;;;;35.53;29.85;;;;;;;;;;5008456;28;20074;-78
2022/12/11 10:52:30;;;;;;;22.80;18.67;;;;;;;;;;5023592;28;20025;-78
2022/12/11 10:55:00;;;;;;;33.72;27.90;;;;;;;;;;5025698;28;20043;-77
2022/12/11 10:57:31;;;;;;;33.17;26.70;;;;;;;;;;5025178;28;20052;-78
2022/12/11 10:59:56;;;;;;;34.42;28.35;;;;;;;;;;5026946;28;20503;-79
2022/12/11 11:02:34;;;;;;;35.72;27.83;;;;;;;;;;5040223;28;20028;-78
2022/12/11 11:05:09;;;;;;;30.88;24.42;;;;;;;;;;5038056;28;20033;-77
2022/12/11 11:07:34;;;;;;;43.63;32.53;;;;;;;;;;5038814;28;20048;-77
2022/12/11 11:10:09;;;;;;;41.25;31.65;;;;;;;;;;5037956;28;20025;-74
2022/12/11 11:12:39;;;;;;;19.40;15.20;;;;;;;;;;5012134;28;20017;-75
2022/12/11 11:15:09;;;;;;;51.63;34.90;;;;;;;;;;4996256;28;20383;-73
2022/12/11 11:17:34;;;;;;;;;;;;;;;;;;5004922;28;20037;-75
2022/12/11 11:20:03;;;;;;;49.57;36.97;;;;;;;;;;5004201;28;19924;-75
2022/12/11 11:22:30;;;;;;;47.70;35.10;;;;;;;;;;5019265;28;20448;-76
2022/12/11 11:24:57;;;;;;;48.10;36.83;;;;;;;;;;5000751;28;20739;-77
2022/12/11 11:27:33;;;;;;;26.63;21.65;;;;;;;;;;5021057;28;20083;-77
2022/12/11 11:30:07;;;;;;;24.65;20.85;;;;;;;;;;5019653;28;20025;-77
2022/12/11 11:32:35;;;;;;;40.10;32.65;;;;;;;;;;5017997;28;20025;-76
2022/12/11 11:35:10;;;;;;;25.70;20.48;;;;;;;;;;5020537;28;20184;-79
2022/12/11 11:37:37;;;;;;;32.75;24.95;;;;;;;;;;5017788;28;20037;-77
2022/12/11 11:40:21;;;;;;;32.20;26.23;;;;;;;;;;5019883;28;20033;-76
2022/12/11 11:42:46;;;;;;;47.38;38.15;;;;;;;;;;5018759;28;20029;-77
2022/12/11 11:45:16;;;;;;;31.02;26.65;;;;;;;;;;5023185;28;20033;-76
2022/12/11 11:47:47;;;;;;;30.25;26.77;;;;;;;;;;5020558;28;20104;-76
2022/12/11 11:50:21;;;;;;;40.65;32.55;;;;;;;;;;5019708;28;20060;-77
2022/12/11 11:53:10;;;;;;;49.10;37.42;;;;;;;;;;5011667;28;20033;-78
2022/12/11 11:55:55;;;;;;;26.05;21.08;;;;;;;;;;5004637;28;20137;-78
2022/12/11 11:58:35;;;;;;;23.80;19.83;;;;;;;;;;5002752;28;20037;-77
2022/12/11 12:01:01;;;;;;;14.90;13.30;;;;;;;;;;5002730;28;20045;-77
2022/12/11 12:03:27;;;;;;;29.60;22.77;;;;;;;;;;5001700;28;20022;-77
2022/12/11 12:06:11;;;;;;;19.13;15.90;;;;;;;;;;5001361;28;20018;-78
2022/12/11 12:08:59;;;;;;;19.98;17.25;;;;;;;;;;5001787;28;20029;-78
2022/12/11 12:11:25;;;;;;;24.83;21.55;;;;;;;;;;5001078;28;20115;-80
2022/12/11 12:14:05;;;;;;;15.80;13.93;;;;;;;;;;5022935;28;20040;-79
2022/12/11 12:16:30;;;;;;;22.00;18.98;;;;;;;;;;5029367;28;20082;-79
2022/12/11 12:18:55;;;;;;;17.45;15.45;;;;;;;;;;5037602;28;20039;-80
2022/12/11 12:21:29;;;;;;;19.13;16.75;;;;;;;;;;5016764;28;20103;-79
2022/12/11 12:23:55;;;;;;;21.95;19.33;;;;;;;;;;5018173;28;21104;-79
2022/12/11 12:26:37;;;;;;;35.50;30.38;;;;;;;;;;5024035;28;20040;-80
2022/12/11 12:29:19;;;;;;;37.47;33.15;;;;;;;;;;5036371;28;20017;-81
2022/12/11 12:32:03;;;;;;;51.55;42.78;;;;;;;;;;5035321;28;20020;-81
2022/12/11 12:34:47;;;;;;;47.83;39.25;;;;;;;;;;5036956;28;20120;-82
2022/12/11 12:37:25;;;;;;;37.47;30.88;;;;;;;;;;5034721;28;20047;-80
2022/12/11 12:40:09;;;;;;;51.95;37.03;;;;;;;;;;5036209;28;20098;-80
2022/12/11 12:42:40;;;;;;;90.05;63.13;;;;;;;;;;5035378;28;20021;-79
2022/12/11 12:45:15;;;;;;;33.60;29.40;;;;;;;;;;5036604;28;20040;-79
2022/12/11 12:47:42;;;;;;;43.50;38.85;;;;;;;;;;5037013;28;20032;-81
2022/12/11 12:50:12;;;;;;;55.42;48.03;;;;;;;;;;5025408;28;20035;-77
2022/12/11 12:52:38;;;;;;;27.55;24.60;;;;;;;;;;5027153;28;20021;-78
2022/12/11 12:55:12;;;;;;;39.33;32.45;;;;;;;;;;5019430;28;20455;-77
2022/12/11 12:57:43;;;;;;;22.48;20.10;;;;;;;;;;5015599;28;20033;-78
2022/12/11 13:00:11;;;;;;;20.52;18.38;;;;;;;;;;5024967;28;20021;-78
2022/12/11 13:02:56;;;;;;;18.67;16.67;;;;;;;;;;5034047;28;20455;-77
2022/12/11 13:05:23;;;;;;;39.97;35.70;;;;;;;;;;5033382;28;20447;-79
2022/12/11 13:07:50;;;;;;;21.73;19.73;;;;;;;;;;5021870;28;20043;-80
2022/12/11 13:10:26;;;;;;;15.95;14.45;;;;;;;;;;5022997;28;20714;-79
2022/12/11 13:12:51;;;;;;;20.55;18.58;;;;;;;;;;5022182;28;20013;-76
2022/12/11 13:15:32;;;;;;;15.40;14.00;;;;;;;;;;5034403;28;20412;-78
2022/12/11 13:17:57;;;;;;;21.30;19.17;;;;;;;;;;5026078;28;20171;-80
2022/12/11 13:20:27;;;;;;;18.13;16.35;;;;;;;;;;5023290;28;20104;-77
2022/12/11 13:23:09;;;;;;;18.55;16.75;;;;;;;;;;5023845;28;20072;-79
2022/12/11 13:25:53;;;;;;;32.22;28.98;;;;;;;;;;5027160;28;23609;-80
2022/12/11 13:28:38;;;;;;;18.30;16.38;;;;;;;;;;5020910;28;20013;-80
2022/12/11 13:31:06;;;;;;;29.67;26.63;;;;;;;;;;5009090;28;20095;-78
2022/12/11 13:33:36;;;;;;;71.22;62.20;;;;;;;;;;5021215;28;20025;-81
2022/12/11 13:36:24;;;;;;;39.33;35.33;;;;;;;;;;5020358;28;20410;-79
2022/12/11 13:39:01;;;;;;;52.05;45.45;;;;;;;;;;5012805;28;20041;-79
2022/12/11 13:41:27;;;;;;;57.50;42.70;;;;;;;;;;5015889;28;20047;-83
2022/12/11 13:43:52;;;;;;;129.20;103.43;;;;;;;;;;5027641;28;20367;-82
2022/12/11 13:46:26;;;;;;;53.20;39.72;;;;;;;;;;5036517;28;20123;-81
2022/12/11 13:48:55;;;;;;;60.55;42.25;;;;;;;;;;5036291;28;20073;-80
2022/12/11 13:51:22;;;;;;;113.60;77.57;;;;;;;;;;5036784;28;20167;-80
2022/12/11 13:53:48;;;;;;;71.82;56.60;;;;;;;;;;5032343;28;21395;-79
2022/12/11 13:56:17;;;;;;;52.80;40.67;;;;;;;;;;5034818;28;21081;-81
2022/12/11 13:58:43;;;;;;;188.68;146.27;;;;;;;;;;5018958;28;20048;-80
2022/12/11 14:01:11;;;;;;;112.90;86.28;;;;;;;;;;5020285;28;20760;-79
2022/12/11 14:03:40;;;;;;;81.18;64.43;;;;;;;;;;5018587;28;20021;-81
2022/12/11 14:06:09;;;;;;;64.55;53.75;;;;;;;;;;5022697;28;20117;-81
2022/12/11 14:08:36;;;;;;;65.30;52.63;;;;;;;;;;5020854;28;20021;-79
2022/12/11 14:11:01;;;;;;;79.30;68.18;;;;;;;;;;5022217;28;20426;-81
2022/12/11 14:13:35;;;;;;;54.97;47.38;;;;;;;;;;5024729;28;20037;-80
2022/12/11 14:16:00;;;;;;;51.40;43.80;;;;;;;;;;5032969;28;20730;-80
2022/12/11 14:18:27;;;;;;;83.00;65.63;;;;;;;;;;5039885;28;20074;-83
2022/12/11 14:20:57;;;;;;;80.82;63.80;;;;;;;;;;5039039;28;20087;-79
2022/12/11 14:23:24;;;;;;;75.13;58.45;;;;;;;;;;5037455;28;20036;-79
2022/12/11 14:25:54;;;;;;;66.60;50.00;;;;;;;;;;5022336;28;20041;-79
2022/12/11 14:28:19;;;;;;;62.65;48.38;;;;;;;;;;5020050;28;20056;-79
2022/12/11 14:30:46;;;;;;;64.97;53.38;;;;;;;;;;5021706;28;20041;-79
2022/12/11 14:33:12;;;;;;;62.00;50.00;;;;;;;;;;5023498;28;20057;-78
2022/12/11 14:35:40;;;;;;;70.00;54.72;;;;;;;;;;5022323;28;20079;-80
2022/12/11 14:38:24;;;;;;;80.57;63.08;;;;;;;;;;5021536;28;20035;-79